Terminal Aerodrome Forecast
Issued by NWS Greer, SC

Home | Current Version | Previous Version | Text Only | Print | Product List | Glossary On
Versions: 1 2 3 4 5 6 7 8 9 10 11 12 13 14 15 16 17 18 19 20 21 22 23 24
000
FTUS42 KGSP 201740
TAFCLT
TAF
KCLT 201740Z 2018/2118 23004KT 5SM BR OVC003
     FM202000 19003KT P6SM SCT008 BKN015
     FM210100 17003KT P6SM SCT020 BKN060
     FM210700 VRB02KT 4SM BR BKN008
     FM210900 00000KT 1SM BR OVC003
     FM211500 18003KT 4SM BR OVC006 PROB30 2115/2118 -SHRA BR SCT006
      OVC012=

USA.gov is the U.S. government's official web portal to all federal, state and local government web resources and services.